createdAt,value
2018-04-27T00:01:24.427Z,56.47
2018-04-27T00:03:52.232Z,60.13
2018-04-27T00:06:20.055Z,54.53
2018-04-27T00:08:47.858Z,61.47
2018-04-27T00:11:15.656Z,54.53
2018-04-27T00:13:43.527Z,58.93
2018-04-27T00:16:11.339Z,57.60
2018-04-27T00:18:39.148Z,58.63
2018-04-27T00:21:07.730Z,50.97
2018-04-27T00:23:36.371Z,58.53
2018-04-27T00:26:04.292Z,64.27
2018-04-27T00:28:32.103Z,53.97
2018-04-27T00:30:59.919Z,56.87
2018-04-27T00:33:27.783Z,51.90
2018-04-27T00:35:55.604Z,68.03
2018-04-27T00:38:23.407Z,59.73
2018-04-27T00:40:51.985Z,55.40
2018-04-27T00:43:20.564Z,54.57
2018-04-27T00:45:49.131Z,52.90
2018-04-27T00:48:16.918Z,59.47
2018-04-27T00:50:45.476Z,55.83
2018-04-27T00:53:16.173Z,50.53
2018-04-27T00:55:43.975Z,50.30
2018-04-27T00:58:11.792Z,47.50
2018-04-27T01:00:39.639Z,46.87
2018-04-27T01:03:07.455Z,43.30
2018-04-27T01:05:35.260Z,52.87
2018-04-27T01:08:03.869Z,44.77
2018-04-27T01:10:31.692Z,59.53
2018-04-27T01:12:59.515Z,72.40
2018-04-27T01:15:27.347Z,72.53
2018-04-27T01:17:55.927Z,69.07
2018-04-27T01:20:24.511Z,87.60
2018-04-27T01:22:53.098Z,66.57
2018-04-27T01:25:21.671Z,73.17
2018-04-27T01:27:50.247Z,72.73
2018-04-27T01:30:18.811Z,80.30
2018-04-27T01:32:46.620Z,84.13
2018-04-27T01:35:14.428Z,72.40
2018-04-27T01:37:42.263Z,75.57
2018-04-27T01:40:10.066Z,68.43
2018-04-27T01:42:37.879Z,75.30
2018-04-27T01:45:05.696Z,70.10
2018-04-27T01:47:33.500Z,73.33
2018-04-27T01:50:02.088Z,71.57
2018-04-27T01:52:29.943Z,66.40
2018-04-27T01:54:58.511Z,77.00
2018-04-27T01:57:27.081Z,77.37
2018-04-27T01:59:54.894Z,69.20
2018-04-27T02:02:22.695Z,74.70
2018-04-27T02:04:50.520Z,78.10
2018-04-27T02:07:18.325Z,76.30
2018-04-27T02:09:46.128Z,67.93
2018-04-27T02:12:14.700Z,77.07
2018-04-27T02:14:42.496Z,68.03
2018-04-27T02:17:10.287Z,71.60
2018-04-27T02:19:38.080Z,72.87
2018-04-27T02:22:05.883Z,65.30
2018-04-27T02:24:33.692Z,72.63
2018-04-27T02:27:01.503Z,70.83
2018-04-27T02:29:30.076Z,71.63
2018-04-27T02:31:57.895Z,79.57
2018-04-27T02:34:25.695Z,71.83
2018-04-27T02:36:53.499Z,73.33
2018-04-27T02:39:21.303Z,77.60
2018-04-27T02:41:49.100Z,69.63
2018-04-27T02:44:17.673Z,80.30
2018-04-27T02:46:45.471Z,73.37
2018-04-27T02:49:13.284Z,79.47
2018-04-27T02:51:41.103Z,79.53
2018-04-27T02:54:08.894Z,72.00
2018-04-27T02:56:36.691Z,76.10
2018-04-27T02:59:04.574Z,88.03
2018-04-27T03:01:33.153Z,68.37
2018-04-27T03:04:00.953Z,78.97
2018-04-27T03:06:28.800Z,76.60
2018-04-27T03:08:57.384Z,67.00
2018-04-27T03:11:25.968Z,77.57
2018-04-27T03:13:54.555Z,80.90
2018-04-27T03:16:23.154Z,78.70
2018-04-27T03:18:51.014Z,72.37
2018-04-27T03:21:18.826Z,88.60
2018-04-27T03:23:46.717Z,85.97
2018-04-27T03:26:14.475Z,77.30
2018-04-27T03:28:42.279Z,82.30
2018-04-27T03:31:10.939Z,78.60
2018-04-27T03:33:39.511Z,78.80
2018-04-27T03:36:07.320Z,70.27
2018-04-27T03:38:35.132Z,82.27
2018-04-27T03:41:02.961Z,79.30
2018-04-27T03:43:30.760Z,75.50
2018-04-27T03:45:58.572Z,77.33
2018-04-27T03:48:27.578Z,78.17
2018-04-27T03:50:55.404Z,75.37
2018-04-27T03:53:23.987Z,78.80
2018-04-27T03:55:52.536Z,72.57
2018-04-27T03:58:20.332Z,69.83
2018-04-27T04:01:00.692Z,82.73
2018-04-27T04:03:40.237Z,73.60
2018-04-27T04:06:08.855Z,74.40
2018-04-27T04:08:36.631Z,89.43
2018-04-27T04:11:04.443Z,75.43
2018-04-27T04:13:32.999Z,74.07
2018-04-27T04:16:00.803Z,100.23
2018-04-27T04:18:29.424Z,85.60
2018-04-27T04:20:57.976Z,94.43
2018-04-27T04:23:26.546Z,69.20
2018-04-27T04:25:55.101Z,72.10
2018-04-27T04:28:22.892Z,82.00
2018-04-27T04:30:51.472Z,90.77
2018-04-27T04:33:19.299Z,88.00
2018-04-27T04:35:47.108Z,92.03
2018-04-27T04:38:15.701Z,86.30
2018-04-27T04:40:43.515Z,109.87
2018-04-27T04:43:11.321Z,104.77
2018-04-27T04:45:39.871Z,110.53
2018-04-27T04:48:07.721Z,105.18
2018-04-27T04:50:35.499Z,101.27
2018-04-27T04:53:03.291Z,101.17
2018-04-27T04:55:31.856Z,108.20
2018-04-27T04:57:59.755Z,100.50
2018-04-27T05:00:28.293Z,109.13
2018-04-27T05:02:56.196Z,94.50
2018-04-27T05:05:23.920Z,98.70
2018-04-27T05:07:51.721Z,101.30
2018-04-27T05:10:20.308Z,87.03
2018-04-27T05:12:48.876Z,105.53
2018-04-27T05:15:16.663Z,93.37
2018-04-27T05:17:45.191Z,89.27
2018-04-27T05:20:12.431Z,92.10
2018-04-27T05:22:40.212Z,87.23
2018-04-27T05:25:08.007Z,84.30
2018-04-27T05:27:36.564Z,86.53
2018-04-27T05:30:04.417Z,79.53
2018-04-27T05:32:32.237Z,80.20
2018-04-27T05:35:00.874Z,84.53
2018-04-27T05:37:28.693Z,77.13
2018-04-27T05:39:56.599Z,67.43
2018-04-27T05:42:25.181Z,67.07
2018-04-27T05:44:53.015Z,73.73
2018-04-27T05:47:20.891Z,73.57
2018-04-27T05:49:48.764Z,69.23
2018-04-27T05:52:16.544Z,77.27
2018-04-27T05:54:44.328Z,74.77
2018-04-27T05:57:12.160Z,74.03
2018-04-27T05:59:39.944Z,74.67
2018-04-27T06:02:07.741Z,70.93
2018-04-27T06:04:36.367Z,86.53
2018-04-27T06:07:04.923Z,76.30
2018-04-27T06:09:33.484Z,71.80
2018-04-27T06:12:01.304Z,66.33
2018-04-27T06:14:29.154Z,69.53
2018-04-27T06:16:56.986Z,64.47
2018-04-27T06:19:24.764Z,64.13
2018-04-27T06:21:53.360Z,72.63
2018-04-27T06:24:21.157Z,86.73
2018-04-27T06:26:48.970Z,87.12
2018-04-27T06:29:17.511Z,94.67
2018-04-27T06:31:45.349Z,81.60
2018-04-27T06:34:13.135Z,92.87
2018-04-27T06:36:40.991Z,89.70
2018-04-27T06:39:08.773Z,99.60
2018-04-27T06:41:36.556Z,83.17
2018-04-27T06:44:04.375Z,88.17
2018-04-27T06:46:32.304Z,81.77
2018-04-27T06:49:00.091Z,78.23
2018-04-27T06:51:28.004Z,95.10
2018-04-27T06:53:55.799Z,79.07
2018-04-27T06:56:23.683Z,81.73
2018-04-27T06:58:52.399Z,79.10
2018-04-27T07:01:20.283Z,87.83
2018-04-27T07:03:48.127Z,105.10
2018-04-27T07:06:16.000Z,94.00
2018-04-27T07:08:43.877Z,89.00
2018-04-27T07:11:11.760Z,98.97
2018-04-27T07:13:39.644Z,81.10
2018-04-27T07:16:07.419Z,83.70
2018-04-27T07:18:35.956Z,80.73
2018-04-27T07:21:03.744Z,63.27
2018-04-27T07:23:31.547Z,67.63
2018-04-27T07:26:00.164Z,61.17
2018-04-27T07:28:27.936Z,61.47
2018-04-27T07:30:55.712Z,52.67
2018-04-27T07:33:23.500Z,63.90
2018-04-27T07:35:51.271Z,47.57
2018-04-27T07:38:19.907Z,59.30
2018-04-27T07:40:47.796Z,45.13
2018-04-27T07:43:15.677Z,63.97
2018-04-27T07:45:43.527Z,61.13
2018-04-27T07:48:11.352Z,50.10
2018-04-27T07:50:39.158Z,55.33
2018-04-27T07:53:07.004Z,44.10
2018-04-27T07:55:34.892Z,47.20
2018-04-27T07:58:02.773Z,64.33
2018-04-27T08:00:30.720Z,85.70
2018-04-27T08:02:58.648Z,76.23
2018-04-27T08:05:26.536Z,63.20
2018-04-27T08:07:54.408Z,53.60
2018-04-27T08:10:22.355Z,41.70
2018-04-27T08:12:50.229Z,44.90
2018-04-27T08:15:18.128Z,49.27
2018-04-27T08:17:46.008Z,33.50
2018-04-27T08:20:13.954Z,36.70
2018-04-27T08:22:41.833Z,37.23
2018-04-27T08:25:09.720Z,44.47
2018-04-27T08:27:37.612Z,41.70
2018-04-27T08:30:05.488Z,39.60
2018-04-27T08:32:33.320Z,38.73
2018-04-27T08:35:01.268Z,36.80
2018-04-27T08:37:29.048Z,36.03
2018-04-27T08:39:56.824Z,30.67
2018-04-27T08:42:25.369Z,30.27
2018-04-27T08:44:53.256Z,47.97
2018-04-27T08:47:21.088Z,36.63
2018-04-27T08:49:48.868Z,35.30
2018-04-27T08:52:16.771Z,37.87
2018-04-27T08:54:45.416Z,30.80
2018-04-27T08:57:13.276Z,34.53
2018-04-27T08:59:41.188Z,30.23
2018-04-27T09:02:09.747Z,34.40
2018-04-27T09:04:37.544Z,30.40
2018-04-27T09:07:06.139Z,22.30
2018-04-27T09:09:33.946Z,32.87
2018-04-27T09:12:01.762Z,38.03
2018-04-27T09:14:30.311Z,30.53
2018-04-27T09:16:58.231Z,25.40
2018-04-27T09:19:26.028Z,32.40
2018-04-27T09:21:53.859Z,34.23
2018-04-27T09:24:21.680Z,31.80
2018-04-27T09:26:49.500Z,31.57
2018-04-27T09:29:17.351Z,28.07
2018-04-27T09:31:45.144Z,26.47
2018-04-27T09:34:12.980Z,31.30
2018-04-27T09:36:40.781Z,29.43
2018-04-27T09:39:08.619Z,29.83
2018-04-27T09:41:36.493Z,18.00
2018-04-27T09:44:04.392Z,23.63
2018-04-27T09:46:32.257Z,25.83
2018-04-27T09:49:00.115Z,23.13
2018-04-27T09:51:27.996Z,25.60
2018-04-27T09:53:55.789Z,21.03
2018-04-27T09:56:24.378Z,22.90
2018-04-27T09:58:52.989Z,26.70
2018-04-27T10:01:20.797Z,22.20
2018-04-27T10:03:48.635Z,20.63
2018-04-27T10:06:16.526Z,29.80
2018-04-27T10:08:44.332Z,21.67
2018-04-27T10:11:12.145Z,28.07
2018-04-27T10:13:39.943Z,21.23
2018-04-27T10:16:08.592Z,19.87
2018-04-27T10:18:36.356Z,21.17
2018-04-27T10:21:04.152Z,26.00
2018-04-27T10:23:32.746Z,26.10
2018-04-27T10:26:01.316Z,18.87
2018-04-27T10:28:29.107Z,21.80
2018-04-27T10:30:56.933Z,26.27
2018-04-27T10:33:24.788Z,27.47
2018-04-27T10:35:52.641Z,27.20
2018-04-27T10:38:20.459Z,22.67
2018-04-27T10:40:49.091Z,23.87
2018-04-27T10:43:16.956Z,18.07
2018-04-27T10:45:44.764Z,20.83
2018-04-27T10:48:13.391Z,15.67
2018-04-27T10:50:41.344Z,29.60
2018-04-27T10:53:09.242Z,20.77
2018-04-27T10:55:37.106Z,19.50
2018-04-27T10:58:04.992Z,21.53
2018-04-27T11:00:32.871Z,21.13
2018-04-27T11:03:00.740Z,20.80
2018-04-27T11:05:28.626Z,22.73
2018-04-27T11:07:57.272Z,28.40
2018-04-27T11:10:25.195Z,23.48
2018-04-27T11:12:53.088Z,38.40
2018-04-27T11:15:20.975Z,36.67
2018-04-27T11:17:48.860Z,38.13
2018-04-27T11:20:16.815Z,29.03
2018-04-27T11:22:44.692Z,39.07
2018-04-27T11:25:12.589Z,26.63
2018-04-27T11:27:41.236Z,30.97
2018-04-27T11:30:09.040Z,44.37
2018-04-27T11:32:36.837Z,38.33
2018-04-27T11:35:04.711Z,28.40
2018-04-27T11:37:32.519Z,25.33
2018-04-27T11:40:01.061Z,22.97
2018-04-27T11:42:28.892Z,20.50
2018-04-27T11:44:56.672Z,22.53
2018-04-27T11:47:24.547Z,30.20
2018-04-27T11:49:52.404Z,24.03
2018-04-27T11:52:20.285Z,26.83
2018-04-27T11:54:48.157Z,23.17
2018-04-27T11:57:16.028Z,32.50
2018-04-27T11:59:43.904Z,27.63
2018-04-27T12:02:12.732Z,32.03
2018-04-27T12:04:41.374Z,28.80
2018-04-27T12:07:09.264Z,27.70
2018-04-27T12:09:37.973Z,31.27
2018-04-27T12:12:05.870Z,27.80
2018-04-27T12:14:33.805Z,21.57
2018-04-27T12:17:02.444Z,29.13
2018-04-27T12:19:30.246Z,21.13
2018-04-27T12:21:58.829Z,26.37
2018-04-27T12:24:27.442Z,30.50
2018-04-27T12:26:55.229Z,35.03
2018-04-27T12:29:23.040Z,24.53
2018-04-27T12:31:51.703Z,28.40
2018-04-27T12:34:20.194Z,28.13
2018-04-27T12:36:48.057Z,30.90
2018-04-27T12:39:15.923Z,29.97
2018-04-27T12:41:43.787Z,21.20
2018-04-27T12:44:11.677Z,27.83
2018-04-27T12:46:40.340Z,25.27
2018-04-27T12:49:08.250Z,20.17
2018-04-27T12:51:36.195Z,22.87
2018-04-27T12:54:04.843Z,21.50
2018-04-27T12:56:32.755Z,23.17
2018-04-27T12:59:01.367Z,21.10
2018-04-27T13:01:29.167Z,20.60
2018-04-27T13:03:56.977Z,24.87
2018-04-27T13:06:24.856Z,17.50
2018-04-27T13:08:54.164Z,26.40
2018-04-27T13:11:22.188Z,23.83
2018-04-27T13:13:51.528Z,21.60
2018-04-27T13:16:19.466Z,32.77
2018-04-27T13:18:49.039Z,19.07
2018-04-27T13:21:17.615Z,24.83
2018-04-27T13:23:45.395Z,35.20
2018-04-27T13:26:13.267Z,32.90
2018-04-27T13:28:41.055Z,34.80
2018-04-27T13:31:09.657Z,25.47
2018-04-27T13:33:37.455Z,28.73
2018-04-27T13:36:05.369Z,22.50
2018-04-27T13:38:33.191Z,28.97
2018-04-27T13:41:01.138Z,33.83
2018-04-27T13:43:29.021Z,22.00
2018-04-27T13:45:56.841Z,28.57
2018-04-27T13:48:25.405Z,36.53
2018-04-27T13:50:54.121Z,33.60
2018-04-27T13:53:22.024Z,25.10
2018-04-27T13:55:49.948Z,24.47
2018-04-27T13:58:17.820Z,22.73
2018-04-27T14:00:45.782Z,25.60
2018-04-27T14:03:13.799Z,31.13
2018-04-27T14:05:41.721Z,28.53
2018-04-27T14:08:09.681Z,29.58
2018-04-27T14:10:38.332Z,19.10
2018-04-27T14:13:06.242Z,26.33
2018-04-27T14:15:34.908Z,21.47
2018-04-27T14:18:03.545Z,22.77
2018-04-27T14:20:31.447Z,21.90
2018-04-27T14:22:59.233Z,18.50
2018-04-27T14:25:27.808Z,22.53
2018-04-27T14:27:56.412Z,15.77
2018-04-27T14:30:24.256Z,19.60
2018-04-27T14:32:52.945Z,17.47
2018-04-27T14:35:21.500Z,22.50
2018-04-27T14:37:49.368Z,20.07
2018-04-27T14:40:17.156Z,13.47
2018-04-27T14:42:45.768Z,16.90
2018-04-27T14:45:13.539Z,14.00
2018-04-27T14:47:41.329Z,18.53
2018-04-27T14:50:09.219Z,14.70
2018-04-27T14:52:37.080Z,21.10
2018-04-27T14:55:05.800Z,27.03
2018-04-27T14:57:33.737Z,23.10
2018-04-27T15:00:01.625Z,19.90
2018-04-27T15:02:30.345Z,25.57
2018-04-27T15:04:58.139Z,23.53
2018-04-27T15:07:25.926Z,17.13
2018-04-27T15:09:53.716Z,14.63
2018-04-27T15:12:22.391Z,15.87
2018-04-27T15:14:51.086Z,25.80
2018-04-27T15:17:19.664Z,11.30
2018-04-27T15:19:47.542Z,13.07
2018-04-27T15:22:15.321Z,13.67
2018-04-27T15:24:43.172Z,19.50
2018-04-27T15:27:11.051Z,20.73
2018-04-27T15:29:39.049Z,14.97
2018-04-27T15:32:06.856Z,13.40
2018-04-27T15:34:35.461Z,12.60
2018-04-27T15:37:04.157Z,15.60
2018-04-27T15:39:32.086Z,13.97
2018-04-27T15:42:00.759Z,20.77
2018-04-27T15:44:28.647Z,16.27
2018-04-27T15:46:57.368Z,15.27
2018-04-27T15:49:25.959Z,19.77
2018-04-27T15:51:53.907Z,24.10
2018-04-27T15:54:21.823Z,18.43
2018-04-27T15:56:49.614Z,15.97
2018-04-27T15:59:18.253Z,8.90
2018-04-27T16:01:46.931Z,17.40
2018-04-27T16:04:14.821Z,12.17
2018-04-27T16:06:42.700Z,12.00
2018-04-27T16:09:10.610Z,16.23
2018-04-27T16:11:38.591Z,20.53
2018-04-27T16:14:06.487Z,15.87
2018-04-27T16:16:34.363Z,19.13
2018-04-27T16:19:03.151Z,8.60
2018-04-27T16:21:31.255Z,18.57
2018-04-27T16:23:59.891Z,18.03
2018-04-27T16:26:29.260Z,10.43
2018-04-27T16:28:57.165Z,13.93
2018-04-27T16:31:26.032Z,18.97
2018-04-27T16:33:53.912Z,14.00
2018-04-27T16:36:21.788Z,20.20
2018-04-27T16:38:49.745Z,13.17
2018-04-27T16:41:17.619Z,18.83
2018-04-27T16:43:45.428Z,18.63
2018-04-27T16:46:14.123Z,10.40
2018-04-27T16:48:42.735Z,21.87
2018-04-27T16:51:10.547Z,12.20
2018-04-27T16:53:38.372Z,16.53
2018-04-27T16:56:06.253Z,18.80
2018-04-27T16:58:34.201Z,27.20
2018-04-27T17:01:02.244Z,18.37
2018-04-27T17:03:30.245Z,17.90
2018-04-27T17:05:58.125Z,21.40
2018-04-27T17:08:26.008Z,12.47
2018-04-27T17:10:53.895Z,13.53
2018-04-27T17:13:22.540Z,16.33
2018-04-27T17:15:50.563Z,24.93
2018-04-27T17:18:18.459Z,15.43
2018-04-27T17:20:46.364Z,24.23
2018-04-27T17:23:14.249Z,28.83
2018-04-27T17:25:42.884Z,14.95
2018-04-27T17:28:10.771Z,16.57
2018-04-27T17:30:38.677Z,14.77
2018-04-27T17:33:07.332Z,22.43
2018-04-27T17:35:35.502Z,21.50
2018-04-27T17:38:03.396Z,15.27
2018-04-27T17:40:32.060Z,15.97
2018-04-27T17:42:59.941Z,16.20
2018-04-27T17:45:27.901Z,20.30
2018-04-27T17:47:55.770Z,22.07
2018-04-27T17:50:23.660Z,29.17
2018-04-27T17:52:51.493Z,16.20
2018-04-27T17:55:19.404Z,21.27
2018-04-27T17:57:47.247Z,22.33
2018-04-27T18:00:15.959Z,26.67
2018-04-27T18:02:43.803Z,21.73
2018-04-27T18:05:12.448Z,18.90
2018-04-27T18:07:40.233Z,26.53
2018-04-27T18:10:08.258Z,21.03
2018-04-27T18:12:36.839Z,17.73
2018-04-27T18:15:04.795Z,20.20
2018-04-27T18:17:32.741Z,17.33
2018-04-27T18:20:01.391Z,16.83
2018-04-27T18:22:29.304Z,22.57
2018-04-27T18:24:57.866Z,25.17
2018-04-27T18:27:25.710Z,23.33
2018-04-27T18:29:53.591Z,14.77
2018-04-27T18:32:21.419Z,24.23
2018-04-27T18:34:49.251Z,27.37
2018-04-27T18:37:17.894Z,30.20
2018-04-27T18:39:45.744Z,17.13
2018-04-27T18:42:13.578Z,21.13
2018-04-27T18:44:41.463Z,24.07
2018-04-27T18:47:09.342Z,24.33
2018-04-27T18:49:37.216Z,19.33
2018-04-27T18:52:05.304Z,24.10
2018-04-27T18:54:33.196Z,28.90
2018-04-27T18:57:01.841Z,26.10
2018-04-27T18:59:29.715Z,28.17
2018-04-27T19:01:57.593Z,19.97
2018-04-27T19:04:25.492Z,20.63
2018-04-27T19:06:53.373Z,23.13
2018-04-27T19:09:21.265Z,27.77
2018-04-27T19:11:49.184Z,29.10
2018-04-27T19:14:17.834Z,21.60
2018-04-27T19:16:45.740Z,18.00
2018-04-27T19:19:14.394Z,20.53
2018-04-27T19:21:42.263Z,19.93
2018-04-27T19:24:10.148Z,22.73
2018-04-27T19:26:38.800Z,28.70
2018-04-27T19:29:06.679Z,21.07
2018-04-27T19:31:34.567Z,33.47
2018-04-27T19:34:03.584Z,27.03
2018-04-27T19:36:31.484Z,19.90
2018-04-27T19:38:59.354Z,25.23
2018-04-27T19:41:27.288Z,20.50
2018-04-27T19:43:55.160Z,20.80
2018-04-27T19:46:23.004Z,28.53
2018-04-27T19:48:51.663Z,27.93
2018-04-27T19:51:19.531Z,22.97
2018-04-27T19:53:47.424Z,19.27
2018-04-27T19:56:16.064Z,31.93
2018-04-27T19:58:43.964Z,23.53
2018-04-27T20:01:12.608Z,26.73
2018-04-27T20:03:40.471Z,26.40
2018-04-27T20:06:08.353Z,29.77
2018-04-27T20:08:36.254Z,30.20
2018-04-27T20:11:04.196Z,36.47
2018-04-27T20:13:32.332Z,27.60
2018-04-27T20:16:01.177Z,34.97
2018-04-27T20:18:29.906Z,36.90
2018-04-27T20:20:59.309Z,23.60
2018-04-27T20:23:30.114Z,31.63
2018-04-27T20:26:00.773Z,39.20
2018-04-27T20:28:29.639Z,33.13
2018-04-27T20:30:58.331Z,38.67
2018-04-27T20:33:26.318Z,36.75
2018-04-27T20:35:58.159Z,31.77
2018-04-27T20:38:29.420Z,36.57
2018-04-27T20:40:57.295Z,31.73
2018-04-27T20:43:27.010Z,34.50
2018-04-27T20:45:55.650Z,33.47
2018-04-27T20:48:26.122Z,33.00
2018-04-27T20:51:08.747Z,39.50
2018-04-27T20:53:55.283Z,40.63
2018-04-27T20:56:45.629Z,34.50
2018-04-27T20:59:14.518Z,43.07
2018-04-27T21:01:42.407Z,37.13
2018-04-27T21:04:10.327Z,39.47
2018-04-27T21:06:38.307Z,37.57
2018-04-27T21:09:06.171Z,38.57
2018-04-27T21:11:34.798Z,35.10
2018-04-27T21:14:03.459Z,35.77
2018-04-27T21:16:32.083Z,43.63
2018-04-27T21:18:59.967Z,54.77
2018-04-27T21:21:28.628Z,49.37
2018-04-27T21:23:56.578Z,53.43
2018-04-27T21:26:28.356Z,45.77
2018-04-27T21:28:57.212Z,41.60
2018-04-27T21:31:25.077Z,47.40
2018-04-27T21:33:53.857Z,48.20
2018-04-27T21:36:25.804Z,51.50
2018-04-27T21:39:10.468Z,58.83
2018-04-27T21:41:54.033Z,56.77
2018-04-27T21:44:25.839Z,47.37
2018-04-27T21:46:54.631Z,50.83
2018-04-27T21:49:25.279Z,47.20
2018-04-27T21:51:54.062Z,46.00
2018-04-27T21:54:22.853Z,50.10
2018-04-27T21:57:01.575Z,50.83
2018-04-27T21:59:38.110Z,50.90
2018-04-27T22:02:09.828Z,54.23
2018-04-27T22:04:37.704Z,56.03
2018-04-27T22:07:06.487Z,47.80
2018-04-27T22:09:54.247Z,46.30
2018-04-27T22:12:25.949Z,39.47
2018-04-27T22:14:53.839Z,49.33
2018-04-27T22:17:26.561Z,49.10
2018-04-27T22:19:55.241Z,45.03
2018-04-27T22:22:23.154Z,48.60
2018-04-27T22:27:51.300Z,46.27
2018-04-27T22:30:25.011Z,51.57
2018-04-27T22:32:53.667Z,38.63
2018-04-27T22:35:40.348Z,52.30
2018-04-27T22:38:13.029Z,48.90
2018-04-27T22:40:44.556Z,52.27
2018-04-27T22:43:14.269Z,55.40
2018-04-27T22:45:43.899Z,45.87
2018-04-27T22:51:14.008Z,45.70
2018-04-27T22:53:59.468Z,49.67
2018-04-27T22:59:29.308Z,51.60
2018-04-27T23:01:57.996Z,55.67
2018-04-27T23:04:26.637Z,49.33
2018-04-27T23:06:54.548Z,53.67
2018-04-27T23:09:23.191Z,62.03
2018-04-27T23:11:51.069Z,52.63
2018-04-27T23:14:32.333Z,48.20
2018-04-27T23:17:01.012Z,44.50
2018-04-27T23:22:35.033Z,52.33
2018-04-27T23:25:05.730Z,45.33
2018-04-27T23:27:34.365Z,49.30
2018-04-27T23:30:02.256Z,51.63
2018-04-27T23:32:30.136Z,52.57
2018-04-27T23:34:58.772Z,52.00
2018-04-27T23:37:26.635Z,51.70
2018-04-27T23:39:55.292Z,56.33
2018-04-27T23:42:26.879Z,50.93
2018-04-27T23:44:54.759Z,60.67
2018-04-27T23:47:22.649Z,54.50
2018-04-27T23:49:50.516Z,52.40
2018-04-27T23:52:18.411Z,58.90
2018-04-27T23:54:46.306Z,58.93
2018-04-27T23:57:15.161Z,57.80
2018-04-27T23:59:44.714Z,53.47
